createdAt,value
2022-12-26T00:01:22.220Z,62.30
2022-12-26T00:02:42.955Z,67.70
2022-12-26T00:04:03.996Z,65.72
2022-12-26T00:05:24.927Z,71.13
2022-12-26T00:06:45.637Z,59.27
2022-12-26T00:08:06.159Z,64.65
2022-12-26T00:09:26.763Z,68.53
2022-12-26T00:10:47.557Z,73.68
2022-12-26T00:12:08.541Z,79.43
2022-12-26T00:13:38.829Z,85.03
2022-12-26T00:16:21.942Z,82.82
2022-12-26T00:19:03.558Z,96.68
2022-12-26T00:20:24.308Z,84.45
2022-12-26T00:21:45.085Z,87.30
2022-12-26T00:23:05.710Z,95.67
2022-12-26T00:24:26.370Z,110.43
2022-12-26T00:25:47.008Z,110.88
2022-12-26T00:27:07.666Z,96.70
2022-12-26T00:28:29.708Z,89.82
2022-12-26T00:29:50.364Z,97.40
2022-12-26T00:31:13.762Z,93.53
2022-12-26T00:32:34.222Z,89.28
2022-12-26T00:33:55.227Z,91.40
2022-12-26T00:35:15.715Z,83.35
2022-12-26T00:36:36.555Z,101.25
2022-12-26T00:37:57.397Z,94.28
2022-12-26T00:39:18.167Z,90.00
2022-12-26T00:40:38.757Z,98.80
2022-12-26T00:41:59.230Z,98.57
2022-12-26T00:43:19.639Z,98.40
2022-12-26T00:44:41.670Z,86.15
2022-12-26T00:46:02.511Z,87.55
2022-12-26T00:47:23.270Z,92.05
2022-12-26T00:48:44.151Z,74.80
2022-12-26T00:50:13.363Z,84.70
2022-12-26T00:51:35.746Z,80.28
2022-12-26T00:52:56.239Z,91.75
2022-12-26T00:54:17.141Z,78.85
2022-12-26T00:55:37.888Z,78.47
2022-12-26T00:56:58.638Z,87.20
2022-12-26T00:58:19.889Z,77.40
2022-12-26T00:59:41.615Z,90.32
2022-12-26T01:01:07.321Z,81.10
2022-12-26T01:02:28.013Z,77.03
2022-12-26T01:03:49.410Z,85.57
2022-12-26T01:05:11.349Z,79.05
2022-12-26T01:06:32.075Z,77.70
2022-12-26T01:08:20.478Z,76.90
2022-12-26T01:09:33.227Z,76.85
2022-12-26T01:10:53.927Z,75.75
2022-12-26T01:12:14.858Z,72.32
2022-12-26T01:13:36.253Z,74.65
2022-12-26T01:14:58.857Z,73.35
2022-12-26T01:16:19.327Z,68.60
2022-12-26T01:17:40.217Z,64.82
2022-12-26T01:19:00.878Z,68.20
2022-12-26T01:20:21.590Z,69.40
2022-12-26T01:21:42.414Z,75.20
2022-12-26T01:23:03.091Z,63.55
2022-12-26T01:24:23.734Z,62.50
2022-12-26T01:26:18.343Z,61.72
2022-12-26T01:27:26.127Z,60.85
2022-12-26T01:28:46.922Z,64.65
2022-12-26T01:30:10.497Z,63.45
2022-12-26T01:31:31.445Z,60.83
2022-12-26T01:32:51.737Z,59.90
2022-12-26T01:34:12.427Z,58.50
2022-12-26T01:35:33.145Z,60.47
2022-12-26T01:36:54.209Z,55.38
2022-12-26T01:39:35.406Z,56.35
2022-12-26T01:40:56.130Z,66.43
2022-12-26T01:42:19.074Z,52.20
2022-12-26T01:43:52.288Z,46.45
2022-12-26T01:45:27.132Z,51.63
2022-12-26T01:46:47.721Z,55.85
2022-12-26T01:48:15.578Z,53.22
2022-12-26T01:49:39.269Z,56.60
2022-12-26T01:51:02.495Z,48.80
2022-12-26T01:52:29.518Z,55.22
2022-12-26T01:53:53.582Z,53.63
2022-12-26T01:55:16.429Z,46.15
2022-12-26T01:56:39.003Z,49.80
2022-12-26T01:58:03.277Z,50.60
2022-12-26T01:59:27.535Z,50.65
2022-12-26T02:00:49.593Z,56.53
2022-12-26T02:02:11.175Z,60.30
2022-12-26T02:03:32.486Z,44.45
2022-12-26T02:04:53.393Z,53.05
2022-12-26T02:06:14.692Z,53.05
2022-12-26T02:07:37.228Z,55.90
2022-12-26T02:08:57.725Z,55.55
2022-12-26T02:10:21.713Z,42.10
2022-12-26T02:11:45.415Z,52.95
2022-12-26T02:13:05.722Z,50.03
2022-12-26T02:14:26.295Z,50.03
2022-12-26T02:15:49.137Z,45.67
2022-12-26T02:17:09.764Z,47.53
2022-12-26T02:18:31.744Z,46.30
2022-12-26T02:19:57.086Z,49.78
2022-12-26T02:21:37.014Z,58.08
2022-12-26T02:23:28.508Z,43.05
2022-12-26T02:25:16.807Z,43.22
2022-12-26T02:27:15.524Z,39.15
2022-12-26T02:28:51.445Z,43.13
2022-12-26T02:30:38.548Z,38.53
2022-12-26T02:32:03.480Z,43.30
2022-12-26T02:33:43.061Z,48.13
2022-12-26T02:35:07.977Z,40.70
2022-12-26T02:36:40.038Z,41.25
2022-12-26T02:38:08.075Z,46.15
2022-12-26T02:39:46.757Z,44.70
2022-12-26T02:41:19.345Z,42.88
2022-12-26T02:42:48.879Z,43.65
2022-12-26T02:44:16.231Z,43.22
2022-12-26T02:45:40.816Z,44.22
2022-12-26T02:47:09.800Z,49.20
2022-12-26T02:48:33.726Z,47.00
2022-12-26T02:50:02.184Z,41.75
2022-12-26T02:51:34.766Z,46.08
2022-12-26T02:53:05.307Z,54.08
2022-12-26T02:54:30.383Z,57.47
2022-12-26T02:55:53.069Z,51.42
2022-12-26T02:57:18.145Z,58.03
2022-12-26T02:58:42.750Z,56.13
2022-12-26T03:00:07.043Z,52.33
2022-12-26T03:01:32.251Z,49.42
2022-12-26T03:02:55.794Z,51.75
2022-12-26T03:04:17.823Z,52.17
2022-12-26T03:05:40.765Z,46.53
2022-12-26T03:07:04.316Z,48.83
2022-12-26T03:08:29.311Z,45.80
2022-12-26T03:09:50.424Z,43.50
2022-12-26T03:11:10.828Z,42.08
2022-12-26T03:12:36.883Z,41.92
2022-12-26T03:14:06.161Z,43.33
2022-12-26T03:15:29.251Z,39.05
2022-12-26T03:16:55.557Z,45.78
2022-12-26T03:18:17.778Z,37.85
2022-12-26T03:19:39.365Z,41.50
2022-12-26T03:21:00.436Z,39.08
2022-12-26T03:22:21.061Z,41.42
2022-12-26T03:23:43.763Z,37.10
2022-12-26T03:25:08.272Z,33.25
2022-12-26T03:26:32.609Z,29.67
2022-12-26T03:27:53.572Z,30.98
2022-12-26T03:29:19.050Z,27.95
2022-12-26T03:30:39.665Z,29.55
2022-12-26T03:32:03.313Z,22.00
2022-12-26T03:33:26.390Z,25.25
2022-12-26T03:34:47.229Z,25.85
2022-12-26T03:36:10.899Z,26.95
2022-12-26T03:37:47.630Z,26.70
2022-12-26T03:39:18.584Z,24.40
2022-12-26T03:40:51.623Z,22.92
2022-12-26T03:42:17.106Z,25.90
2022-12-26T03:43:48.721Z,27.08
2022-12-26T03:46:41.125Z,26.73
2022-12-26T03:48:07.158Z,27.67
2022-12-26T03:49:29.047Z,23.15
2022-12-26T03:50:51.015Z,24.95
2022-12-26T03:52:18.054Z,25.73
2022-12-26T03:53:44.697Z,22.35
2022-12-26T03:55:12.201Z,24.33
2022-12-26T03:56:35.154Z,25.80
2022-12-26T03:58:01.459Z,20.25
2022-12-26T03:59:26.939Z,24.45
2022-12-26T04:00:48.989Z,21.38
2022-12-26T04:02:12.552Z,21.20
2022-12-26T04:03:35.885Z,18.15
2022-12-26T04:04:57.452Z,19.15
2022-12-26T04:07:56.293Z,18.45
2022-12-26T04:09:23.981Z,19.00
2022-12-26T04:10:47.330Z,16.83
2022-12-26T04:12:11.374Z,23.95
2022-12-26T04:13:38.620Z,16.02
2022-12-26T04:15:02.792Z,17.45
2022-12-26T04:16:28.625Z,13.52
2022-12-26T04:17:52.281Z,15.07
2022-12-26T04:19:20.471Z,15.32
2022-12-26T04:20:46.998Z,17.20
2022-12-26T04:22:11.118Z,14.98
2022-12-26T04:23:34.967Z,17.27
2022-12-26T04:25:03.027Z,14.52
2022-12-26T04:26:30.292Z,18.85
2022-12-26T04:27:50.911Z,14.30
2022-12-26T04:29:11.942Z,25.10
2022-12-26T04:30:34.081Z,15.75
2022-12-26T04:32:02.988Z,18.52
2022-12-26T04:33:27.539Z,13.05
2022-12-26T04:34:52.479Z,14.63
2022-12-26T04:36:18.160Z,13.75
2022-12-26T04:37:41.185Z,13.77
2022-12-26T04:39:05.209Z,17.30
2022-12-26T04:40:29.558Z,12.45
2022-12-26T04:41:50.783Z,14.40
2022-12-26T04:43:48.756Z,12.02
2022-12-26T04:44:53.610Z,11.48
2022-12-26T04:46:14.433Z,10.40
2022-12-26T04:47:35.002Z,14.77
2022-12-26T04:48:57.322Z,14.37
2022-12-26T04:50:19.564Z,11.90
2022-12-26T04:51:40.106Z,11.88
2022-12-26T04:53:01.257Z,23.67
2022-12-26T04:55:42.815Z,9.43
2022-12-26T04:57:04.170Z,11.55
2022-12-26T04:58:24.888Z,9.27
2022-12-26T04:59:45.521Z,10.53
2022-12-26T05:01:06.070Z,11.57
2022-12-26T05:02:27.070Z,13.98
2022-12-26T05:03:47.846Z,9.20
2022-12-26T05:05:09.711Z,12.02
2022-12-26T05:06:31.526Z,10.60
2022-12-26T05:07:51.872Z,7.00
2022-12-26T05:09:15.140Z,13.98
2022-12-26T05:10:35.597Z,10.07
2022-12-26T05:11:56.254Z,19.80
2022-12-26T05:13:16.805Z,12.68
2022-12-26T05:14:37.383Z,11.57
2022-12-26T05:15:58.069Z,12.63
2022-12-26T05:17:18.906Z,9.43
2022-12-26T05:18:39.737Z,11.43
2022-12-26T05:20:00.317Z,9.88
2022-12-26T05:21:20.979Z,10.75
2022-12-26T05:22:44.639Z,9.35
2022-12-26T05:24:05.622Z,14.18
2022-12-26T05:25:28.109Z,7.97
2022-12-26T05:26:48.741Z,11.38
2022-12-26T05:28:10.653Z,13.00
2022-12-26T05:29:30.991Z,12.18
2022-12-26T05:30:51.850Z,10.50
2022-12-26T05:32:12.431Z,8.43
2022-12-26T05:33:33.130Z,9.97
2022-12-26T05:34:53.482Z,9.35
2022-12-26T05:36:15.167Z,9.48
2022-12-26T05:37:35.715Z,13.02
2022-12-26T05:38:57.792Z,9.82
2022-12-26T05:40:18.473Z,14.35
2022-12-26T05:41:39.484Z,10.73
2022-12-26T05:42:59.775Z,9.20
2022-12-26T05:44:20.506Z,15.68
2022-12-26T05:45:41.233Z,9.70
2022-12-26T05:47:02.008Z,10.23
2022-12-26T05:48:22.527Z,10.15
2022-12-26T05:49:43.030Z,10.85
2022-12-26T05:51:04.348Z,7.88
2022-12-26T05:52:25.038Z,11.63
2022-12-26T05:53:45.895Z,14.40
2022-12-26T05:55:08.722Z,11.20
2022-12-26T05:56:29.028Z,13.98
2022-12-26T05:57:49.486Z,10.55
2022-12-26T05:59:10.213Z,13.40
2022-12-26T06:00:31.318Z,14.47
2022-12-26T06:01:51.839Z,14.73
2022-12-26T06:03:12.434Z,12.73
2022-12-26T06:04:33.969Z,8.48
2022-12-26T06:05:56.819Z,13.95
2022-12-26T06:07:17.446Z,12.60
2022-12-26T06:08:38.292Z,14.73
2022-12-26T06:09:59.991Z,13.30
2022-12-26T06:11:22.683Z,11.85
2022-12-26T06:12:43.205Z,13.88
2022-12-26T06:14:04.104Z,14.20
2022-12-26T06:15:24.734Z,14.88
2022-12-26T06:16:45.295Z,11.65
2022-12-26T06:18:05.678Z,14.43
2022-12-26T06:19:26.157Z,11.30
2022-12-26T06:20:46.667Z,14.48
2022-12-26T06:22:07.216Z,10.95
2022-12-26T06:23:27.800Z,15.98
2022-12-26T06:24:48.588Z,16.60
2022-12-26T06:26:09.574Z,11.75
2022-12-26T06:27:31.443Z,10.95
2022-12-26T06:28:52.242Z,14.25
2022-12-26T06:30:13.096Z,14.30
2022-12-26T06:31:33.492Z,12.85
2022-12-26T06:32:54.042Z,19.75
2022-12-26T06:34:14.774Z,18.20
2022-12-26T06:36:56.768Z,12.25
2022-12-26T06:38:17.479Z,11.45
2022-12-26T06:39:38.174Z,12.02
2022-12-26T06:40:58.757Z,13.40
2022-12-26T06:42:19.523Z,16.30
2022-12-26T06:43:41.943Z,12.60
2022-12-26T06:45:02.849Z,9.43
2022-12-26T06:46:24.615Z,14.48
2022-12-26T06:49:05.114Z,14.95
2022-12-26T06:50:25.722Z,14.65
2022-12-26T06:51:46.223Z,13.35
2022-12-26T06:53:06.607Z,10.88
2022-12-26T06:54:27.510Z,13.70
2022-12-26T06:55:48.347Z,13.13
2022-12-26T06:57:08.943Z,17.20
2022-12-26T06:58:29.351Z,15.73
2022-12-26T06:59:51.402Z,11.57
2022-12-26T07:01:13.595Z,23.90
2022-12-26T07:02:34.202Z,15.30
2022-12-26T07:03:55.344Z,9.73
2022-12-26T07:05:16.124Z,10.50
2022-12-26T07:06:37.998Z,13.60
2022-12-26T07:07:58.292Z,13.68
2022-12-26T07:09:19.584Z,15.90
2022-12-26T07:12:00.884Z,15.30
2022-12-26T07:13:21.102Z,10.57
2022-12-26T07:14:41.384Z,14.35
2022-12-26T07:16:03.558Z,16.27
2022-12-26T07:17:24.264Z,11.95
2022-12-26T07:18:44.709Z,24.38
2022-12-26T07:20:06.221Z,19.67
2022-12-26T07:22:47.216Z,12.70
2022-12-26T07:24:09.613Z,17.05
2022-12-26T07:25:30.115Z,17.77
2022-12-26T07:26:50.688Z,19.77
2022-12-26T07:28:11.141Z,16.55
2022-12-26T07:29:31.434Z,13.00
2022-12-26T07:30:52.011Z,12.27
2022-12-26T07:32:14.250Z,21.17
2022-12-26T07:33:34.998Z,14.32
2022-12-26T07:34:55.341Z,18.50
2022-12-26T07:36:16.462Z,17.57
2022-12-26T07:37:37.050Z,12.95
2022-12-26T07:38:57.426Z,20.90
2022-12-26T07:40:17.809Z,21.73
2022-12-26T07:41:38.477Z,20.33
2022-12-26T07:42:59.088Z,22.67
2022-12-26T07:44:19.844Z,17.60
2022-12-26T07:45:45.683Z,17.02
2022-12-26T07:47:06.840Z,15.00
2022-12-26T07:48:30.135Z,16.08
2022-12-26T07:49:50.553Z,16.42
2022-12-26T07:51:11.378Z,20.95
2022-12-26T07:52:31.942Z,16.23
2022-12-26T07:53:52.762Z,16.73
2022-12-26T07:55:13.481Z,16.58
2022-12-26T07:56:34.188Z,10.55
2022-12-26T07:57:54.505Z,14.88
2022-12-26T07:59:16.753Z,22.08
2022-12-26T08:00:37.291Z,19.60
2022-12-26T08:01:58.187Z,16.73
2022-12-26T08:03:18.720Z,18.67
2022-12-26T08:04:40.539Z,15.23
2022-12-26T08:06:01.831Z,15.77
2022-12-26T08:07:22.188Z,15.93
2022-12-26T08:08:48.556Z,20.05
2022-12-26T08:10:10.890Z,14.93
2022-12-26T08:11:34.288Z,16.08
2022-12-26T08:12:54.892Z,23.25
2022-12-26T08:14:15.722Z,15.63
2022-12-26T08:15:38.564Z,19.75
2022-12-26T08:16:59.441Z,21.67
2022-12-26T08:18:20.056Z,15.82
2022-12-26T08:19:42.081Z,21.92
2022-12-26T08:21:02.798Z,15.07
2022-12-26T08:22:23.409Z,17.13
2022-12-26T08:23:45.119Z,17.23
2022-12-26T08:25:07.011Z,16.95
2022-12-26T08:26:27.474Z,11.88
2022-12-26T08:27:48.212Z,14.98
2022-12-26T08:29:10.349Z,19.60
2022-12-26T08:30:31.005Z,12.75
2022-12-26T08:31:51.918Z,13.68
2022-12-26T08:33:13.514Z,11.95
2022-12-26T08:34:34.548Z,11.63
2022-12-26T08:35:56.672Z,10.35
2022-12-26T08:37:17.185Z,9.15
2022-12-26T08:38:38.294Z,16.67
2022-12-26T08:39:59.301Z,9.75
2022-12-26T08:41:19.986Z,9.30
2022-12-26T08:42:56.128Z,16.35
2022-12-26T08:44:29.453Z,16.65
2022-12-26T08:45:58.020Z,18.52
2022-12-26T08:47:18.330Z,20.92
2022-12-26T08:48:40.678Z,16.05
2022-12-26T08:50:01.782Z,18.80
2022-12-26T08:51:24.860Z,32.55
2022-12-26T08:52:45.280Z,19.17
2022-12-26T08:54:06.075Z,26.48
2022-12-26T08:55:26.903Z,24.33
2022-12-26T08:56:47.627Z,27.23
2022-12-26T08:58:08.360Z,23.50
2022-12-26T08:59:28.883Z,20.80
2022-12-26T09:00:55.028Z,27.08
2022-12-26T09:02:15.745Z,23.25
2022-12-26T09:03:36.390Z,23.20
2022-12-26T09:04:57.170Z,30.88
2022-12-26T09:06:17.839Z,27.48
2022-12-26T09:07:39.854Z,47.70
2022-12-26T09:09:01.139Z,22.35
2022-12-26T09:10:21.639Z,32.95
2022-12-26T09:11:42.585Z,29.92
2022-12-26T09:13:03.028Z,26.30
2022-12-26T09:14:23.490Z,28.23
2022-12-26T09:15:44.025Z,22.95
2022-12-26T09:17:04.532Z,22.17
2022-12-26T09:18:25.179Z,28.80
2022-12-26T09:19:45.823Z,18.80
2022-12-26T09:21:08.126Z,25.93
2022-12-26T09:22:33.540Z,20.20
2022-12-26T09:24:01.648Z,26.73
2022-12-26T09:25:25.844Z,15.13
2022-12-26T09:26:46.800Z,26.48
2022-12-26T09:28:07.577Z,20.90
2022-12-26T09:29:28.059Z,35.42
2022-12-26T09:30:48.660Z,23.83
2022-12-26T09:32:09.179Z,28.42
2022-12-26T09:33:30.498Z,24.20
2022-12-26T09:34:50.795Z,18.92
2022-12-26T09:36:15.149Z,21.90
2022-12-26T09:37:35.950Z,22.38
2022-12-26T09:38:57.911Z,21.35
2022-12-26T09:40:23.266Z,19.00
2022-12-26T09:41:53.748Z,22.75
2022-12-26T09:43:20.271Z,21.55
2022-12-26T09:44:47.801Z,22.17
2022-12-26T09:46:12.876Z,21.33
2022-12-26T09:47:35.377Z,20.92
2022-12-26T09:48:59.475Z,32.80
2022-12-26T09:50:24.757Z,31.00
2022-12-26T09:51:51.040Z,18.27
2022-12-26T09:53:13.751Z,16.67
2022-12-26T09:54:36.665Z,20.67
2022-12-26T09:56:01.018Z,15.25
2022-12-26T09:57:25.599Z,21.15
2022-12-26T09:58:50.193Z,17.48
2022-12-26T10:00:17.091Z,21.20
2022-12-26T10:01:37.711Z,24.98
2022-12-26T10:02:59.281Z,26.45
2022-12-26T10:04:28.606Z,20.30
2022-12-26T10:06:03.711Z,22.48
2022-12-26T10:07:28.699Z,20.95
2022-12-26T10:09:39.829Z,29.33
2022-12-26T10:11:03.147Z,20.92
2022-12-26T10:12:36.736Z,24.88
2022-12-26T10:14:02.375Z,21.52
2022-12-26T10:15:31.781Z,17.50
2022-12-26T10:16:56.615Z,18.38
2022-12-26T10:18:28.117Z,18.40
2022-12-26T10:20:05.401Z,21.58
2022-12-26T10:21:34.992Z,27.95
2022-12-26T10:23:16.592Z,19.17
2022-12-26T10:24:39.346Z,24.42
2022-12-26T10:26:06.487Z,14.07
2022-12-26T10:27:28.420Z,21.98
2022-12-26T10:28:53.378Z,22.65
2022-12-26T10:30:18.036Z,22.80
2022-12-26T10:31:42.155Z,16.50
2022-12-26T10:33:09.478Z,17.25
2022-12-26T10:34:32.527Z,14.55
2022-12-26T10:35:53.362Z,22.08
2022-12-26T10:37:21.188Z,16.95
2022-12-26T10:38:44.145Z,12.70
2022-12-26T10:40:15.341Z,13.18
2022-12-26T10:41:42.297Z,10.93
2022-12-26T10:43:17.086Z,14.80
2022-12-26T10:44:38.039Z,21.20
2022-12-26T10:46:16.396Z,16.83
2022-12-26T10:47:39.099Z,12.13
2022-12-26T10:48:59.704Z,21.33
2022-12-26T10:50:27.169Z,19.20
2022-12-26T10:51:48.641Z,19.27
2022-12-26T10:53:13.097Z,16.45
2022-12-26T10:54:34.013Z,15.55
2022-12-26T10:55:54.531Z,9.95
2022-12-26T10:57:16.709Z,9.82
2022-12-26T10:58:38.477Z,17.35
2022-12-26T10:59:59.194Z,10.55
2022-12-26T11:01:37.136Z,11.30
2022-12-26T11:03:05.789Z,14.93
2022-12-26T11:04:53.158Z,18.52
2022-12-26T11:06:08.795Z,18.80
2022-12-26T11:07:32.421Z,12.48
2022-12-26T11:08:54.370Z,15.98
2022-12-26T11:10:18.425Z,17.33
2022-12-26T11:11:38.823Z,17.90
2022-12-26T11:13:02.591Z,15.85
2022-12-26T11:14:33.673Z,7.55
2022-12-26T11:15:55.151Z,14.35
2022-12-26T11:17:28.202Z,18.15
2022-12-26T11:18:50.327Z,21.52
2022-12-26T11:20:27.607Z,13.68
2022-12-26T11:21:48.249Z,11.48
2022-12-26T11:23:25.992Z,11.88
2022-12-26T11:24:46.426Z,15.07
2022-12-26T11:26:20.635Z,22.17
2022-12-26T11:27:43.551Z,16.92
2022-12-26T11:29:12.241Z,14.50
2022-12-26T11:30:34.367Z,14.30
2022-12-26T11:31:57.795Z,44.38
2022-12-26T11:33:24.993Z,18.00
2022-12-26T11:34:47.486Z,16.65
2022-12-26T11:36:10.909Z,12.45
2022-12-26T11:37:37.504Z,6.45
2022-12-26T11:39:00.819Z,7.88
2022-12-26T11:40:24.751Z,9.05
2022-12-26T11:41:45.335Z,10.18
2022-12-26T11:43:07.344Z,7.82
2022-12-26T11:47:12.056Z,13.27
2022-12-26T11:48:32.609Z,10.05
2022-12-26T11:49:59.276Z,8.45
2022-12-26T11:51:38.239Z,8.25
2022-12-26T11:53:06.828Z,11.02
2022-12-26T11:54:33.676Z,10.02
2022-12-26T11:55:59.853Z,10.82
2022-12-26T11:57:22.879Z,9.18
2022-12-26T11:58:43.361Z,9.30
2022-12-26T12:00:17.489Z,11.07
2022-12-26T12:01:38.305Z,8.35
2022-12-26T12:02:59.268Z,12.43
2022-12-26T12:04:20.199Z,10.68
2022-12-26T12:05:46.922Z,12.23
2022-12-26T12:07:15.695Z,10.77
2022-12-26T12:08:41.758Z,12.02
2022-12-26T12:10:07.925Z,10.30
2022-12-26T12:11:35.460Z,2.78
2022-12-26T12:12:59.562Z,7.47
2022-12-26T12:14:30.379Z,12.05
2022-12-26T12:15:58.702Z,10.38
2022-12-26T12:17:23.648Z,9.68
2022-12-26T12:18:50.221Z,8.60
2022-12-26T12:20:20.057Z,8.88
2022-12-26T12:21:54.739Z,9.10
2022-12-26T12:23:28.851Z,7.97
2022-12-26T12:25:05.173Z,13.27
2022-12-26T12:26:30.820Z,10.32
2022-12-26T12:27:56.868Z,5.45
2022-12-26T12:29:28.844Z,8.70
2022-12-26T12:30:57.775Z,6.95
2022-12-26T12:32:23.721Z,12.80
2022-12-26T12:33:50.295Z,10.48
2022-12-26T12:35:28.992Z,11.35
2022-12-26T12:36:56.287Z,10.57
2022-12-26T12:38:26.421Z,19.42
2022-12-26T12:39:55.044Z,9.20
2022-12-26T12:41:29.809Z,8.55
2022-12-26T12:42:54.911Z,13.98
2022-12-26T12:44:21.005Z,9.15
2022-12-26T12:45:46.311Z,11.50
2022-12-26T12:47:13.972Z,6.07
2022-12-26T12:48:53.920Z,12.40
2022-12-26T12:50:20.586Z,17.50
2022-12-26T12:51:46.539Z,10.43
2022-12-26T12:53:16.681Z,10.38
2022-12-26T12:55:01.398Z,10.43
2022-12-26T12:56:27.718Z,12.60
2022-12-26T12:57:53.599Z,14.70
2022-12-26T12:59:20.771Z,7.88
2022-12-26T13:00:43.866Z,9.77
2022-12-26T13:02:15.327Z,6.40
2022-12-26T13:03:41.918Z,14.70
2022-12-26T13:05:07.902Z,11.20
2022-12-26T13:06:31.382Z,11.85
2022-12-26T13:07:55.603Z,9.25
2022-12-26T13:09:20.486Z,8.88
2022-12-26T13:10:48.064Z,12.13
2022-12-26T13:12:11.865Z,8.48
2022-12-26T13:13:35.360Z,11.52
2022-12-26T13:14:57.809Z,12.18
2022-12-26T13:16:22.143Z,8.05
2022-12-26T13:17:49.600Z,11.32
2022-12-26T13:19:19.552Z,6.75
2022-12-26T13:20:43.019Z,9.75
2022-12-26T13:22:10.135Z,16.58
2022-12-26T13:23:32.525Z,6.85
2022-12-26T13:24:58.427Z,11.57
2022-12-26T13:26:20.914Z,8.90
2022-12-26T13:27:41.500Z,6.82
2022-12-26T13:29:06.326Z,10.10
2022-12-26T13:30:26.847Z,16.42
2022-12-26T13:31:47.637Z,8.90
2022-12-26T13:33:14.647Z,8.87
2022-12-26T13:34:35.035Z,10.88
2022-12-26T13:35:57.348Z,8.70
2022-12-26T13:37:56.014Z,11.02
2022-12-26T13:39:32.089Z,11.13
2022-12-26T13:40:56.947Z,8.45
2022-12-26T13:42:32.383Z,13.00
2022-12-26T13:44:23.562Z,11.20
2022-12-26T13:45:54.111Z,10.45
2022-12-26T13:47:30.399Z,10.50
2022-12-26T13:49:01.246Z,10.48
2022-12-26T13:50:54.949Z,10.57
2022-12-26T13:52:33.620Z,15.10
2022-12-26T13:53:58.954Z,13.20
2022-12-26T13:55:32.717Z,14.35
2022-12-26T13:57:16.180Z,12.27
2022-12-26T13:58:44.472Z,10.77
2022-12-26T14:00:17.778Z,16.33
2022-12-26T14:01:44.580Z,8.95
2022-12-26T14:03:37.365Z,12.63
2022-12-26T14:05:06.363Z,14.38
2022-12-26T14:06:44.892Z,10.15
2022-12-26T14:08:10.410Z,11.75
2022-12-26T14:09:38.922Z,18.10
2022-12-26T14:11:10.231Z,16.90
2022-12-26T14:12:42.897Z,14.80
2022-12-26T14:14:10.904Z,12.98
2022-12-26T14:15:41.964Z,13.57
2022-12-26T14:17:15.888Z,15.43
2022-12-26T14:18:44.135Z,10.35
2022-12-26T14:20:17.250Z,15.95
2022-12-26T14:21:46.521Z,12.85
2022-12-26T14:23:20.179Z,10.05
2022-12-26T14:24:50.740Z,13.48
2022-12-26T14:26:22.441Z,17.00
2022-12-26T14:27:47.026Z,10.25
2022-12-26T14:29:15.873Z,14.13
2022-12-26T14:30:48.926Z,13.00
2022-12-26T14:32:21.384Z,18.50
2022-12-26T14:33:48.934Z,17.05
2022-12-26T14:35:16.042Z,15.30
2022-12-26T14:36:41.209Z,20.65
2022-12-26T14:38:09.957Z,13.70
2022-12-26T14:39:36.713Z,13.90
2022-12-26T14:40:59.503Z,17.48
2022-12-26T14:42:22.827Z,10.88
2022-12-26T14:43:43.445Z,23.55
2022-12-26T14:45:09.900Z,16.17
2022-12-26T14:47:03.994Z,22.58
2022-12-26T14:48:49.224Z,17.15
2022-12-26T14:50:39.825Z,16.35
2022-12-26T14:52:40.278Z,15.52
2022-12-26T14:54:32.854Z,22.77
2022-12-26T14:55:55.355Z,13.80
2022-12-26T14:57:47.554Z,14.57
2022-12-26T15:00:45.557Z,15.88
2022-12-26T15:02:27.467Z,20.75
2022-12-26T15:03:51.513Z,13.52
2022-12-26T15:05:14.117Z,15.93
2022-12-26T15:06:54.567Z,14.20
2022-12-26T15:08:40.178Z,14.40
2022-12-26T15:10:20.158Z,12.68
2022-12-26T15:12:20.704Z,17.65
2022-12-26T15:14:23.658Z,17.83
2022-12-26T15:15:58.723Z,22.02
2022-12-26T15:17:23.760Z,16.50
2022-12-26T15:19:48.407Z,24.98
2022-12-26T15:21:45.588Z,15.02
2022-12-26T15:23:41.420Z,13.18
2022-12-26T15:25:38.045Z,20.38
2022-12-26T15:27:27.500Z,14.10
2022-12-26T15:29:32.508Z,17.05
2022-12-26T15:31:07.860Z,20.08
2022-12-26T15:32:34.807Z,18.77
2022-12-26T15:33:59.790Z,17.63
2022-12-26T15:35:23.328Z,22.63
2022-12-26T15:36:46.061Z,19.25
2022-12-26T15:38:28.217Z,13.68
2022-12-26T15:39:53.767Z,12.45
2022-12-26T15:41:18.536Z,20.85
2022-12-26T15:42:45.932Z,26.65
2022-12-26T15:44:19.567Z,17.25
2022-12-26T15:45:45.533Z,15.00
2022-12-26T15:47:14.134Z,16.27
2022-12-26T15:48:43.698Z,27.95
2022-12-26T15:50:19.403Z,28.40
2022-12-26T15:51:53.939Z,20.98
2022-12-26T15:53:25.399Z,25.05
2022-12-26T15:55:23.832Z,20.67
2022-12-26T15:56:53.509Z,20.65
2022-12-26T15:58:31.086Z,26.10
2022-12-26T16:00:04.666Z,20.38
2022-12-26T16:01:36.346Z,19.92
2022-12-26T16:03:10.578Z,20.42
2022-12-26T16:04:36.068Z,20.38
2022-12-26T16:06:04.732Z,27.50
2022-12-26T16:07:39.646Z,20.60
2022-12-26T16:09:26.176Z,17.55
2022-12-26T16:10:51.219Z,23.10
2022-12-26T16:12:22.321Z,19.65
2022-12-26T16:13:55.017Z,24.38
2022-12-26T16:15:17.534Z,16.13
2022-12-26T16:16:38.792Z,20.02
2022-12-26T16:18:13.587Z,22.02
2022-12-26T16:19:34.370Z,25.85
2022-12-26T16:20:56.305Z,25.55
2022-12-26T16:22:19.694Z,17.23
2022-12-26T16:23:42.089Z,19.80
2022-12-26T16:25:07.033Z,22.05
2022-12-26T16:26:30.233Z,19.10
2022-12-26T16:27:53.775Z,19.17
2022-12-26T16:29:17.199Z,24.20
2022-12-26T16:30:37.881Z,22.52
2022-12-26T16:32:02.967Z,22.88
2022-12-26T16:33:23.445Z,21.92
2022-12-26T16:34:44.824Z,20.55
2022-12-26T16:36:05.503Z,17.27
2022-12-26T16:37:27.368Z,16.88
2022-12-26T16:40:20.123Z,17.83
2022-12-26T16:41:58.551Z,28.80
2022-12-26T16:43:25.516Z,22.13
2022-12-26T16:44:46.569Z,21.17
2022-12-26T16:46:07.304Z,19.27
2022-12-26T16:47:32.305Z,17.23
2022-12-26T16:48:54.491Z,24.55
2022-12-26T16:50:17.012Z,21.75
2022-12-26T16:51:40.574Z,20.75
2022-12-26T16:53:03.893Z,23.08
2022-12-26T16:54:30.174Z,22.23
2022-12-26T16:55:55.087Z,27.75
2022-12-26T16:57:19.530Z,29.67
2022-12-26T16:58:40.642Z,18.92
2022-12-26T17:00:01.353Z,22.35
2022-12-26T17:01:22.686Z,26.63
2022-12-26T17:02:46.573Z,21.70
2022-12-26T17:04:17.751Z,23.25
2022-12-26T17:05:38.505Z,18.55
2022-12-26T17:07:01.373Z,14.18
2022-12-26T17:08:21.902Z,14.50
2022-12-26T17:09:45.368Z,17.80
2022-12-26T17:11:07.136Z,22.98
2022-12-26T17:12:31.050Z,25.20
2022-12-26T17:13:53.804Z,21.70
2022-12-26T17:15:20.461Z,22.63
2022-12-26T17:16:41.171Z,23.35
2022-12-26T17:18:35.414Z,23.70
2022-12-26T17:19:57.426Z,13.70
2022-12-26T17:21:21.188Z,15.88
2022-12-26T17:22:41.516Z,19.25
2022-12-26T17:24:15.363Z,23.95
2022-12-26T17:25:35.899Z,19.80
2022-12-26T17:27:16.713Z,15.80
2022-12-26T17:28:37.686Z,15.43
2022-12-26T17:29:59.147Z,21.45
2022-12-26T17:31:27.652Z,19.83
2022-12-26T17:32:48.049Z,19.05
2022-12-26T17:34:15.458Z,17.20
2022-12-26T17:36:21.249Z,16.83
2022-12-26T17:37:21.792Z,14.35
2022-12-26T17:38:42.862Z,12.05
2022-12-26T17:40:07.791Z,17.98
2022-12-26T17:41:28.298Z,15.43
2022-12-26T17:42:52.035Z,18.38
2022-12-26T17:44:35.628Z,20.10
2022-12-26T17:45:55.916Z,16.67
2022-12-26T17:47:20.854Z,17.38
2022-12-26T17:48:42.243Z,20.80
2022-12-26T17:50:02.621Z,21.10
2022-12-26T17:51:23.197Z,18.27
2022-12-26T17:52:43.890Z,36.97
2022-12-26T17:54:04.532Z,27.02
2022-12-26T17:55:27.049Z,30.83
2022-12-26T17:56:47.312Z,32.38
2022-12-26T17:58:12.760Z,31.52
2022-12-26T17:59:33.490Z,28.52
2022-12-26T18:00:54.750Z,23.33
2022-12-26T18:02:15.521Z,16.60
2022-12-26T18:03:36.019Z,16.63
2022-12-26T18:04:56.649Z,21.52
2022-12-26T18:06:17.530Z,20.38
2022-12-26T18:07:38.514Z,14.00
2022-12-26T18:08:58.871Z,12.23
2022-12-26T18:10:21.371Z,10.95
2022-12-26T18:11:41.913Z,12.70
2022-12-26T18:13:03.417Z,15.52
2022-12-26T18:14:25.100Z,11.07
2022-12-26T18:15:47.071Z,11.77
2022-12-26T18:17:08.078Z,11.65
2022-12-26T18:18:34.067Z,6.80
2022-12-26T18:19:54.541Z,15.02
2022-12-26T18:21:15.573Z,9.25
2022-12-26T18:22:35.921Z,11.82
2022-12-26T18:23:56.566Z,14.73
2022-12-26T18:25:19.224Z,14.23
2022-12-26T18:26:40.201Z,8.50
2022-12-26T18:28:00.460Z,11.73
2022-12-26T18:29:21.581Z,9.10
2022-12-26T18:30:43.758Z,12.17
2022-12-26T18:32:05.828Z,10.52
2022-12-26T18:33:26.420Z,19.35
2022-12-26T18:34:47.046Z,14.60
2022-12-26T18:36:10.631Z,11.00
2022-12-26T18:37:31.335Z,16.35
2022-12-26T18:38:52.078Z,13.48
2022-12-26T18:40:24.008Z,18.40
2022-12-26T18:41:44.390Z,11.50
2022-12-26T18:43:07.306Z,12.10